Terminal Aerodrome Forecast
Issued by NWS

Current Version | Previous Version | Text Only | Print | Product List | Glossary Off
Versions: 1 2 3 4 5 6 7 8 9 10 11 12 13 14 15 16 17 18 19

548
FTUS41 KPBZ 212339
TAFHLG
TAF
KHLG 212339Z 2200/2224 24007KT P6SM SCT080 BKN250 PROB30 2218/2222
      4SM TS BKN050CB=

USA.gov is the U.S. government's official web portal to all federal, state and local government web resources and services.